Aviation Digital Data Service (ADDS)

Output produced by METARs form (2038 UTC 23 January 2019)
found at http://www.aviationweather.gov/metar/data/
 
METAR text: NFTF 231900Z 14007KT 9999 FEW010 26/23 Q1010
Conditions at: NFTF (FUA AMOTU TONGA , FJ) observed 1900 UTC 23 January 2019
Temperature: 26.0°C (79°F)
Dewpoint: 23.0°C (73°F) [RH = 84%]
Pressure (altimeter): 29.82 inches Hg (1010.0 mb)
Winds: from the SE (140 degrees) at 8 MPH (7 knots; 3.6 m/s)
Visibility: 6 or more miles (10+ km)
Ceiling: at least 12,000 feet AGL
Clouds: few clouds at 1000 feet AGL
Weather: no significant weather observed at this time

METAR text: NFTF 231800Z 15005KT 9999 FEW010 FEW018TCU 25/22 Q1009
Conditions at: NFTF (FUA AMOTU TONGA , FJ) observed 1800 UTC 23 January 2019
Temperature: 25.0°C (77°F)
Dewpoint: 22.0°C (72°F) [RH = 83%]
Pressure (altimeter): 29.79 inches Hg (1009.0 mb)
Winds: from the SSE (150 degrees) at 6 MPH (5 knots; 2.6 m/s)
Visibility: 6 or more miles (10+ km)
Ceiling: at least 12,000 feet AGL
Clouds: few clouds at 1000 feet AGL
few clouds at 1800 feet AGL
Weather: no significant weather observed at this time

METAR text: NFTF 231700Z 15003KT 9999 FEW016 24/23 Q1009
Conditions at: NFTF (FUA AMOTU TONGA , FJ) observed 1700 UTC 23 January 2019
Temperature: 24.0°C (75°F)
Dewpoint: 23.0°C (73°F) [RH = 94%]
Pressure (altimeter): 29.79 inches Hg (1009.0 mb)
Winds: from the SSE (150 degrees) at 3 MPH (3 knots; 1.5 m/s)
Visibility: 6 or more miles (10+ km)
Ceiling: at least 12,000 feet AGL
Clouds: few clouds at 1600 feet AGL
Weather: no significant weather observed at this time

METAR text: NFTF 231600Z 15004KT 9999 SCT016 24/23 Q1009
Conditions at: NFTF (FUA AMOTU TONGA , FJ) observed 1600 UTC 23 January 2019
Temperature: 24.0°C (75°F)
Dewpoint: 23.0°C (73°F) [RH = 94%]
Pressure (altimeter): 29.79 inches Hg (1009.0 mb)
Winds: from the SSE (150 degrees) at 5 MPH (4 knots; 2.1 m/s)
Visibility: 6 or more miles (10+ km)
Ceiling: at least 12,000 feet AGL
Clouds: scattered clouds at 1600 feet AGL
Weather: no significant weather observed at this time

METAR text: NFTF 231500Z 14004KT 9999 FEW016 24/23 Q1008
Conditions at: NFTF (FUA AMOTU TONGA , FJ) observed 1500 UTC 23 January 2019
Temperature: 24.0°C (75°F)
Dewpoint: 23.0°C (73°F) [RH = 94%]
Pressure (altimeter): 29.76 inches Hg (1008.0 mb)
Winds: from the SE (140 degrees) at 5 MPH (4 knots; 2.1 m/s)
Visibility: 6 or more miles (10+ km)
Ceiling: at least 12,000 feet AGL
Clouds: few clouds at 1600 feet AGL
Weather: no significant weather observed at this time

METAR text: NFTF 231400Z 14004KT 9999 FEW016 24//23 Q1009
Conditions at: NFTF (FUA AMOTU TONGA , FJ) observed 1400 UTC 23 January 2019
Temperature: missing
Dewpoint: missing
Pressure (altimeter): 29.79 inches Hg (1009.0 mb)
Winds: from the SE (140 degrees) at 5 MPH (4 knots; 2.1 m/s)
Visibility: 6 or more miles (10+ km)
Ceiling: at least 12,000 feet AGL
Clouds: few clouds at 1600 feet AGL
Weather: no significant weather observed at this time

METAR text: NFTF 231200Z 15005KT 9999 FEW016 24/22 Q1010
Conditions at: NFTF (FUA AMOTU TONGA , FJ) observed 1200 UTC 23 January 2019
Temperature: 24.0°C (75°F)
Dewpoint: 22.0°C (72°F) [RH = 89%]
Pressure (altimeter): 29.82 inches Hg (1010.0 mb)
Winds: from the SSE (150 degrees) at 6 MPH (5 knots; 2.6 m/s)
Visibility: 6 or more miles (10+ km)
Ceiling: at least 12,000 feet AGL
Clouds: few clouds at 1600 feet AGL
Weather: no significant weather observed at this time

METAR text: NFTF 222300Z 15011KT 9999 FEW016 SCT290 28/24 Q1009
Conditions at: NFTF (FUA AMOTU TONGA , FJ) observed 2300 UTC 22 January 2019
Temperature: 28.0°C (82°F)
Dewpoint: 24.0°C (75°F) [RH = 79%]
Pressure (altimeter): 29.79 inches Hg (1009.0 mb)
Winds: from the SSE (150 degrees) at 13 MPH (11 knots; 5.7 m/s)
Visibility: 6 or more miles (10+ km)
Ceiling: at least 12,000 feet AGL
Clouds: few clouds at 1600 feet AGL
scattered clouds at 29000 feet AGL
Weather: no significant weather observed at this time

METAR text: NFTF 222200Z 15013KT 9999 FEW016 BKN290 28/24 Q1009
Conditions at: NFTF (FUA AMOTU TONGA , FJ) observed 2200 UTC 22 January 2019
Temperature: 28.0°C (82°F)
Dewpoint: 24.0°C (75°F) [RH = 79%]
Pressure (altimeter): 29.79 inches Hg (1009.0 mb)
Winds: from the SSE (150 degrees) at 15 MPH (13 knots; 6.7 m/s)
Visibility: 6 or more miles (10+ km)
Ceiling: 29000 feet AGL
Clouds: few clouds at 1600 feet AGL
broken clouds at 29000 feet AGL
Weather: no significant weather observed at this time

METAR text: NFTF 222100Z 15010KT 9999 FEW016 SCT280 28/26 Q1009
Conditions at: NFTF (FUA AMOTU TONGA , FJ) observed 2100 UTC 22 January 2019
Temperature: 28.0°C (82°F)
Dewpoint: 26.0°C (79°F) [RH = 89%]
Pressure (altimeter): 29.79 inches Hg (1009.0 mb)
Winds: from the SSE (150 degrees) at 12 MPH (10 knots; 5.1 m/s)
Visibility: 6 or more miles (10+ km)
Ceiling: at least 12,000 feet AGL
Clouds: few clouds at 1600 feet AGL
scattered clouds at 28000 feet AGL
Weather: no significant weather observed at this time

METAR text: NFTF 221900Z 15008KT 9999 FEW010 SCT270 26/24 Q1009
Conditions at: NFTF (FUA AMOTU TONGA , FJ) observed 1900 UTC 22 January 2019
Temperature: 26.0°C (79°F)
Dewpoint: 24.0°C (75°F) [RH = 89%]
Pressure (altimeter): 29.79 inches Hg (1009.0 mb)
Winds: from the SSE (150 degrees) at 9 MPH (8 knots; 4.1 m/s)
Visibility: 6 or more miles (10+ km)
Ceiling: at least 12,000 feet AGL
Clouds: few clouds at 1000 feet AGL
scattered clouds at 27000 feet AGL
Weather: no significant weather observed at this time

METAR text: NFTF 221800Z 15008KT 9999 FEW010 FEW017TCU SCT250 25/23 Q1008
Conditions at: NFTF (FUA AMOTU TONGA , FJ) observed 1800 UTC 22 January 2019
Temperature: 25.0°C (77°F)
Dewpoint: 23.0°C (73°F) [RH = 89%]
Pressure (altimeter): 29.76 inches Hg (1008.0 mb)
Winds: from the SSE (150 degrees) at 9 MPH (8 knots; 4.1 m/s)
Visibility: 6 or more miles (10+ km)
Ceiling: at least 12,000 feet AGL
Clouds: few clouds at 1000 feet AGL
few clouds at 1700 feet AGL
scattered clouds at 25000 feet AGL
Weather: no significant weather observed at this time

METAR text: NFTF 221700Z 16008KT 9999 FEW009 25/23 Q1008
Conditions at: NFTF (FUA AMOTU TONGA , FJ) observed 1700 UTC 22 January 2019
Temperature: 25.0°C (77°F)
Dewpoint: 23.0°C (73°F) [RH = 89%]
Pressure (altimeter): 29.76 inches Hg (1008.0 mb)
Winds: from the SSE (160 degrees) at 9 MPH (8 knots; 4.1 m/s)
Visibility: 6 or more miles (10+ km)
Ceiling: at least 12,000 feet AGL
Clouds: few clouds at 900 feet AGL
Weather: no significant weather observed at this time

METAR text: NFTF 221600Z 16008KT 9999 FEW009 25/23 Q1007
Conditions at: NFTF (FUA AMOTU TONGA , FJ) observed 1600 UTC 22 January 2019
Temperature: 25.0°C (77°F)
Dewpoint: 23.0°C (73°F) [RH = 89%]
Pressure (altimeter): 29.73 inches Hg (1007.0 mb)
Winds: from the SSE (160 degrees) at 9 MPH (8 knots; 4.1 m/s)
Visibility: 6 or more miles (10+ km)
Ceiling: at least 12,000 feet AGL
Clouds: few clouds at 900 feet AGL
Weather: no significant weather observed at this time

METAR text: NFTF 221500Z 15007KT 9999 FEW008 SCT016 25/24 Q1007
Conditions at: NFTF (FUA AMOTU TONGA , FJ) observed 1500 UTC 22 January 2019
Temperature: 25.0°C (77°F)
Dewpoint: 24.0°C (75°F) [RH = 94%]
Pressure (altimeter): 29.73 inches Hg (1007.0 mb)
Winds: from the SSE (150 degrees) at 8 MPH (7 knots; 3.6 m/s)
Visibility: 6 or more miles (10+ km)
Ceiling: at least 12,000 feet AGL
Clouds: few clouds at 800 feet AGL
scattered clouds at 1600 feet AGL
Weather: no significant weather observed at this time

METAR text: NFTF 221400Z 16011KT 9999 FEW008 SCT016 25/23 Q1008
Conditions at: NFTF (FUA AMOTU TONGA , FJ) observed 1400 UTC 22 January 2019
Temperature: 25.0°C (77°F)
Dewpoint: 23.0°C (73°F) [RH = 89%]
Pressure (altimeter): 29.76 inches Hg (1008.0 mb)
Winds: from the SSE (160 degrees) at 13 MPH (11 knots; 5.7 m/s)
Visibility: 6 or more miles (10+ km)
Ceiling: at least 12,000 feet AGL
Clouds: few clouds at 800 feet AGL
scattered clouds at 1600 feet AGL
Weather: no significant weather observed at this time

METAR text: NFTF 221300Z 16007KT 9999 -SHRA FEW008 SCT016 25/24 Q1008
Conditions at: NFTF (FUA AMOTU TONGA , FJ) observed 1300 UTC 22 January 2019
Temperature: 25.0°C (77°F)
Dewpoint: 24.0°C (75°F) [RH = 94%]
Pressure (altimeter): 29.76 inches Hg (1008.0 mb)
Winds: from the SSE (160 degrees) at 8 MPH (7 knots; 3.6 m/s)
Visibility: 6 or more miles (10+ km)
Ceiling: at least 12,000 feet AGL
Clouds: few clouds at 800 feet AGL
scattered clouds at 1600 feet AGL
Weather: -SHRA  (light rain showers)

METAR text: NFTF 221200Z 15008KT 9999 FEW008 25/24 Q1008
Conditions at: NFTF (FUA AMOTU TONGA , FJ) observed 1200 UTC 22 January 2019
Temperature: 25.0°C (77°F)
Dewpoint: 24.0°C (75°F) [RH = 94%]
Pressure (altimeter): 29.76 inches Hg (1008.0 mb)
Winds: from the SSE (150 degrees) at 9 MPH (8 knots; 4.1 m/s)
Visibility: 6 or more miles (10+ km)
Ceiling: at least 12,000 feet AGL
Clouds: few clouds at 800 feet AGL
Weather: no significant weather observed at this time

METAR text: NFTF 221100Z 14008KT 9999 FEW008 SCT016 25/24 Q1009
Conditions at: NFTF (FUA AMOTU TONGA , FJ) observed 1100 UTC 22 January 2019
Temperature: 25.0°C (77°F)
Dewpoint: 24.0°C (75°F) [RH = 94%]
Pressure (altimeter): 29.79 inches Hg (1009.0 mb)
Winds: from the SE (140 degrees) at 9 MPH (8 knots; 4.1 m/s)
Visibility: 6 or more miles (10+ km)
Ceiling: at least 12,000 feet AGL
Clouds: few clouds at 800 feet AGL
scattered clouds at 1600 feet AGL
Weather: no significant weather observed at this time

METAR text: NFTF 221000Z 16007KT 9999 SCT016 25/24 Q1009
Conditions at: NFTF (FUA AMOTU TONGA , FJ) observed 1000 UTC 22 January 2019
Temperature: 25.0°C (77°F)
Dewpoint: 24.0°C (75°F) [RH = 94%]
Pressure (altimeter): 29.79 inches Hg (1009.0 mb)
Winds: from the SSE (160 degrees) at 8 MPH (7 knots; 3.6 m/s)
Visibility: 6 or more miles (10+ km)
Ceiling: at least 12,000 feet AGL
Clouds: scattered clouds at 1600 feet AGL
Weather: no significant weather observed at this time

METAR text: NFTF 220900Z 16009KT 9999 FEW018 SCT016 26/24 Q1009
Conditions at: NFTF (FUA AMOTU TONGA , FJ) observed 0900 UTC 22 January 2019
Temperature: 26.0°C (79°F)
Dewpoint: 24.0°C (75°F) [RH = 89%]
Pressure (altimeter): 29.79 inches Hg (1009.0 mb)
Winds: from the SSE (160 degrees) at 10 MPH (9 knots; 4.6 m/s)
Visibility: 6 or more miles (10+ km)
Ceiling: at least 12,000 feet AGL
Clouds: few clouds at 1800 feet AGL
scattered clouds at 1600 feet AGL
Weather: no significant weather observed at this time

Forecast for: NFTF (FUA AMOTU TONGA , FJ)
Text: TAF NFTF 231704Z 2318/2418 14010KT 9999 SCT016
Forecast period: 1800 UTC 23 January 2019 to 1800 UTC 24 January 2019
Forecast type: FROM: standard forecast or significant change
Winds: from the SE (140 degrees) at 12 MPH (10 knots; 5.1 m/s)
Visibility: 6 or more miles 10+ km)
Ceiling: at least 12,000 feet AGL
Clouds: scattered clouds at 1600 feet AGL
Weather: no significant weather forecast for this period